Detall de PIREP

Printer-friendly versionPDF version

[2012/12/23 15:05:00]
Flight IATA:CT1004
Pilot Number:012
Company ICAO:CAT
Aircraft Type:MD11/E
PAX:0
Aircraft Registration:CARGO
Departing Airport: LEIB
Destination Airport: LEVT
Alternate Airport:LEMD
Online: VATSIM
Route:GODOX1E/24 GODOX UN856 RES UN863 ARBEK UN725 DGO
Flight Level:F330
No Slew and time accel
No pause
Crash detect
Detect pilot in Cockpit between each 30 and 45 minutes
15:05 Zero fuel Weight: 319748 Lbs, Fuel Weight: 42806 Lbs
15:05 VATSIM:LEIB 231430Z 20007KT 9999 OVC006 14/14 Q1021 NOSIG
15:05 VATSIM:LEVT 231430Z 23007KT 210V270 CAVOK 16/06 Q1019
15:06 VOICE CATALONIAN / X-MAS CHARTER
15:07 Parking Brakes off
15:10 Take-off
15:10 Take off Weight: 361612 Lbs
15:10 Wind: 202º @ 007 Knots Heading: 240º
15:10 POS N38º 52´ 24´´ E001º 22´ 29´´
15:10 Gear Up: 194 Knots
15:10 Flaps:3 at 194 Knots
15:12 Flaps:2 at 212 Knots
15:12 Flaps:1 at 213 Knots
15:12 Flaps:3 at 216 Knots
15:12 Flaps:2 at 218 Knots
15:12 Flaps:1 at 219 Knots
15:12 Flaps:0 at 226 Knots
15:25 Wind:232º@032 Knots Heading: 350º Ground Speed: 496 Knots Altitude 32221 ft
15:37 TOC
15:37 Fuel Weight: 31219 Lb
15:40 Wind:243º@034 Knots Heading: 284º Ground Speed: 453 Knots Altitude 33185 ft
15:50 TOD
15:50 Fuel Weight: 28152 Lb
15:55 Wind:242º@034 Knots Heading: 282º Ground Speed: 385 Knots Altitude 23648 ft
16:04 Flaps:1 at 258 Knots
16:05 Flaps:2 at 245 Knots
16:05 Flaps:3 at 243 Knots
16:06 Flaps:4 at 205 Knots
16:06 Flaps:3 at 205 Knots
16:06 Flaps:4 at 204 Knots
16:06 Flaps:5 at 202 Knots
16:06 Flaps:6 at 202 Knots
16:07 Flaps:7 at 188 Knots
16:07 Flaps:6 at 190 Knots
16:07 Flaps:7 at 189 Knots
16:07 Gear Down: 173 Knots
16:08 Flaps:8 at 143 Knots
16:10 Wind:225º@007 Knots Heading: 036º Ground Speed: 163 Knots Altitude 4196 ft
16:10 Flaps:7 at 138 Knots
16:12 TouchDown:Rate -164 ft/min Speed: 142 Knots
16:12 VATSIM:LEVT 231600Z 27006KT 220V300 CAVOK 14/06 Q1019
16:12 Land
16:12 Wind:221º@007 Knots
16:12 Heading: 037º
16:12 Flight Duration: 01:02
16:12 Landing Weight: 344246 Lbs
16:12 POS N42º 52´ 49´´ W002º 43´ 37´´
16:16 Parking brakes on
16:16 Block to Block Duration: 01:09
16:16 Final Fuel: 24078 Lbls
16:16 Spent Fuel: 18727 Lbls
16:16 Flight Length: 414 NM
16:16 TOD Land Length: 111 NM

Exportar CSV

Powered by Drupal - Modified by Danger4k